Aérodrome :
LOGIN :

S'inscrire | Disclaimer

   EN    FR    IT 

 










Légende :    VFR   VFR Marginal   IFR   IFR Intensif   IFR Très Intensif
Visi : 
Plafond : 
>= 8 km
>= 3000ft
5 à 8 km
1000 à 3000 ft
1500m à 5 km
500 à 1000 ft
800 à 1500m
200 à 500 ft
< 800m
< 200 ft
Symboles :   Orages  Brouillard  Fortes neiges  Fortes précipitations  Vent > 20 kt
SIGMETs :   Divers  Orages  Givrage  Turbulence  Onde Orograph.  Cendres Volcan.







- Altitude de l'aérodrome : 1822 ft


ETSL - Lechfeld AB

DERNIER METAR :
  • 191820Z 24005KT 9999 -SHRA FEW007 SCT015 BKN050 09/07 Q1019 BLU

METARs EXPIRÉS :
  • 191720Z 23005KT 9999 VCSH FEW007 BKN045 BKN090 10/07 Q1018 BLU
  • 191620Z 22004KT 9999 -SHRA FEW020 BKN060 BKN100 10/07 Q1018 BLU

TAF AMD TAF ETSL
Valide du 19 à 14h jusqu'au 19 à 23h UTC


191450Z 1914/1923 23005KT 9999 NSW FEW020 BKN030
TEMPO 1914/1919 26010KT 4000 SHRA BKN020 BKN040 CANCEL 1500 BY ETGL
Pas de NOTAMs connus pour ce terrain.



MET'MAP, la Météo Aéronautique d'un coup d'oeil ! - Copyright ORBIFLY Décembre 2007 - Disclaimer

ORBIFLY MET'MAP TEAM :

Programmation & Développement : Alexandra Zaïnal
Conception & Développement : Baudouin d'Aumeries
Co-Programmation & Développement : Marc-Olivier Méhu
Soutien technique & logistique : Manuel Goepfert

Contact : metmap@orbifly.com




SOURCES & CREDITS :

   NOAA